Main page
Satellite images 15-day forecastsClimateMarine weather Cyclones Lightning AirportsFAQ Newsletter About
Weather : Europe Africa North America South America Asia Australia-Oceania Others
Languages Contact

Birmingham, England

latitude: 52-27N, longitude: 001-44W, elevation: 99 m


METAR: EGBB 300450Z 30006KT 9999 BKN033 16/11 Q1016
short-TAF: out of date (50238 hours)
long-TAF: EGBB 291700Z 2918/3018 31010KT 9999 SCT040 PROB30 3003/3006 BKN012

Time: 05:59 (04:59 UTC)

Current weather observation

The report was made 9 minutes ago, at 04:50 UTC  
Wind 06 kt from the West/Northwest
Temperature 16°C
Humidity 72%
Pressure 1016 hPa
Visibility 10 km or more
Broken clouds at a height of 3300 ft

Change units

Forecast

The report was made 11 hours and 44 minutes ago, at 17:15 UTC  
Forecast valid from 29 at 18 UTC to 30 at 18 UTC
Wind 10 kt from the Northwest
Visibility 10 km or more
Scattered clouds at a height of 4000 ft
Probability 30%
from 30 at 03 UTC to 30 at 06 UTC
Broken clouds at a height of 1200 ft
The information on this site is subject to a disclaimer
Weather : Europe Africa North America South America Asia Australia-Oceania Others
Satellite images 15-day forecastsClimateMarine weather Cyclones Lightning AirportsFAQ Languages Contact Newsletter About